createdAt,value
2023-04-02T00:00:47.329Z,66.83
2023-04-02T00:05:54.487Z,66.34
2023-04-02T00:11:01.954Z,66.66
2023-04-02T00:16:10.565Z,67.35
2023-04-02T00:21:21.810Z,66.81
2023-04-02T00:26:36.872Z,66.68
2023-04-02T00:31:48.216Z,66.40
2023-04-02T00:36:54.498Z,66.35
2023-04-02T00:42:07.108Z,66.47
2023-04-02T00:47:34.260Z,66.43
2023-04-02T00:52:41.802Z,66.14
2023-04-02T00:57:49.205Z,66.99
2023-04-02T01:03:17.104Z,66.18
2023-04-02T01:08:42.001Z,66.39
2023-04-02T01:14:05.544Z,66.66
2023-04-02T01:19:47.420Z,66.58
2023-04-02T01:24:54.753Z,66.70
2023-04-02T01:30:03.452Z,66.84
2023-04-02T01:35:10.606Z,66.35
2023-04-02T01:40:21.999Z,66.99
2023-04-02T01:45:28.995Z,67.34
2023-04-02T01:50:41.841Z,66.70
2023-04-02T01:55:50.830Z,66.72
2023-04-02T02:01:06.130Z,66.72
2023-04-02T02:06:17.249Z,66.39
2023-04-02T02:11:26.217Z,66.91
2023-04-02T02:16:33.362Z,66.70
2023-04-02T02:21:44.742Z,66.53
2023-04-02T02:26:53.199Z,66.19
2023-04-02T02:32:01.064Z,66.33
2023-04-02T02:37:25.800Z,65.75
2023-04-02T02:42:37.397Z,65.74
2023-04-02T02:47:45.125Z,66.09
2023-04-02T02:52:57.461Z,65.29
2023-04-02T02:58:26.601Z,65.23
2023-04-02T03:03:41.051Z,65.29
2023-04-02T03:08:50.853Z,65.28
2023-04-02T03:14:01.114Z,64.98
2023-04-02T03:19:25.934Z,65.31
2023-04-02T03:24:34.780Z,65.24
2023-04-02T03:29:44.095Z,65.41
2023-04-02T03:34:59.260Z,65.28
2023-04-02T03:40:11.909Z,65.30
2023-04-02T03:45:26.356Z,65.19
2023-04-02T03:50:44.000Z,65.63
2023-04-02T03:55:50.554Z,65.75
2023-04-02T04:01:17.635Z,65.93
2023-04-02T04:06:32.355Z,65.74
2023-04-02T04:11:47.597Z,65.74
2023-04-02T04:17:03.934Z,65.65
2023-04-02T04:22:19.240Z,65.84
2023-04-02T04:27:38.092Z,65.40
2023-04-02T04:32:55.385Z,65.48
2023-04-02T04:38:16.297Z,65.44
2023-04-02T04:43:41.418Z,65.59
2023-04-02T04:48:53.336Z,65.38
2023-04-02T04:54:01.027Z,65.60
2023-04-02T04:59:23.175Z,65.60
2023-04-02T05:04:38.794Z,65.55
2023-04-02T05:10:01.294Z,65.55
2023-04-02T05:15:31.340Z,66.04
2023-04-02T05:20:40.934Z,65.93
2023-04-02T05:25:56.564Z,66.18
2023-04-02T05:31:08.662Z,65.65
2023-04-02T05:36:23.227Z,65.94
2023-04-02T05:41:34.869Z,65.69
2023-04-02T05:46:53.852Z,65.80
2023-04-02T05:52:04.126Z,65.63
2023-04-02T05:57:12.865Z,64.91
2023-04-02T06:02:34.252Z,64.61
2023-04-02T06:07:47.125Z,64.07
2023-04-02T06:13:01.801Z,63.64
2023-04-02T06:18:27.020Z,63.15
2023-04-02T06:23:50.063Z,63.65
2023-04-02T06:28:58.892Z,63.19
2023-04-02T06:34:07.820Z,63.30
2023-04-02T06:39:22.940Z,61.87
2023-04-02T06:44:32.470Z,62.88
2023-04-02T06:50:04.066Z,61.56
2023-04-02T06:55:41.383Z,61.71
2023-04-02T07:00:49.990Z,60.30
2023-04-02T07:05:58.549Z,60.44
2023-04-02T07:11:04.290Z,60.22
2023-04-02T07:16:16.248Z,58.82
2023-04-02T07:21:25.011Z,59.65
2023-04-02T07:26:30.886Z,60.17
2023-04-02T07:31:37.976Z,59.37
2023-04-02T07:36:43.615Z,58.94
2023-04-02T07:41:55.330Z,59.30
2023-04-02T07:47:01.407Z,59.49
2023-04-02T07:52:07.470Z,58.74
2023-04-02T07:57:13.356Z,59.15
2023-04-02T08:02:23.700Z,58.89
2023-04-02T08:07:29.741Z,58.51
2023-04-02T08:12:35.596Z,58.46
2023-04-02T08:17:43.230Z,57.92
2023-04-02T08:22:50.668Z,58.28
2023-04-02T08:27:56.482Z,57.93
2023-04-02T08:33:02.121Z,57.25
2023-04-02T08:38:07.728Z,56.82
2023-04-02T08:43:39.225Z,57.35
2023-04-02T08:48:47.360Z,57.84
2023-04-02T08:53:58.876Z,55.68
2023-04-02T08:59:07.373Z,56.42
2023-04-02T09:04:21.822Z,55.87
2023-04-02T09:09:28.902Z,55.09
2023-04-02T09:14:52.917Z,55.87
2023-04-02T09:20:10.430Z,56.03
2023-04-02T09:25:28.090Z,55.08
2023-04-02T09:30:45.452Z,54.26
2023-04-02T09:35:54.049Z,54.76
2023-04-02T09:41:03.771Z,53.34
2023-04-02T09:46:21.155Z,52.95
2023-04-02T09:51:33.387Z,52.83
2023-04-02T09:56:41.437Z,53.05
2023-04-02T10:01:50.063Z,52.96
2023-04-02T10:07:00.082Z,54.09
2023-04-02T10:12:11.006Z,52.42
2023-04-02T10:17:28.539Z,51.44
2023-04-02T10:22:34.744Z,51.53
2023-04-02T10:27:52.300Z,51.28
2023-04-02T10:33:06.638Z,51.25
2023-04-02T10:38:27.007Z,51.25
2023-04-02T10:43:50.544Z,51.46
2023-04-02T10:49:01.810Z,50.58
2023-04-02T10:54:30.750Z,50.35
2023-04-02T10:59:38.562Z,49.87
2023-04-02T11:04:48.860Z,48.53
2023-04-02T11:09:57.514Z,49.34
2023-04-02T11:15:03.779Z,50.14
2023-04-02T11:20:44.117Z,51.05
2023-04-02T11:25:50.443Z,49.62
2023-04-02T11:30:57.592Z,49.15
2023-04-02T11:36:03.361Z,48.42
2023-04-02T11:41:08.972Z,48.47
2023-04-02T11:46:32.731Z,48.89
2023-04-02T11:51:41.522Z,47.47
2023-04-02T11:56:52.992Z,46.69
2023-04-02T12:02:16.682Z,48.57
2023-04-02T12:07:55.323Z,48.76
2023-04-02T12:13:00.889Z,47.38
2023-04-02T12:18:16.257Z,47.33
2023-04-02T12:23:25.220Z,47.39
2023-04-02T12:28:33.027Z,46.81
2023-04-02T12:33:43.377Z,46.80
2023-04-02T12:38:52.910Z,47.24
2023-04-02T12:44:01.443Z,47.10
2023-04-02T12:49:10.279Z,47.17
2023-04-02T12:54:18.540Z,47.19
2023-04-02T12:59:39.370Z,47.92
2023-04-02T13:04:53.655Z,48.23
2023-04-02T13:10:02.098Z,46.40
2023-04-02T13:15:11.037Z,47.15
2023-04-02T13:20:36.448Z,47.89
2023-04-02T13:25:43.312Z,47.54
2023-04-02T13:30:49.375Z,46.80
2023-04-02T13:35:55.158Z,47.72
2023-04-02T13:41:00.916Z,47.53
2023-04-02T13:46:08.075Z,47.54
2023-04-02T13:51:16.548Z,47.33
2023-04-02T13:56:23.558Z,47.38
2023-04-02T14:01:29.198Z,47.27
2023-04-02T14:07:01.669Z,47.33
2023-04-02T14:12:31.143Z,47.38
2023-04-02T14:17:40.118Z,46.99
2023-04-02T14:23:06.834Z,47.15
2023-04-02T14:28:41.657Z,45.84
2023-04-02T14:34:02.202Z,46.56
2023-04-02T14:39:16.449Z,46.65
2023-04-02T14:44:25.173Z,45.46
2023-04-02T14:49:41.406Z,46.57
2023-04-02T14:54:58.764Z,45.48
2023-04-02T15:00:10.514Z,46.05
2023-04-02T15:05:31.018Z,45.51
2023-04-02T15:10:39.506Z,45.48
2023-04-02T15:15:55.499Z,45.62
2023-04-02T15:21:10.496Z,45.52
2023-04-02T15:26:43.361Z,45.21
2023-04-02T15:31:49.475Z,45.51
2023-04-02T15:36:58.044Z,46.13
2023-04-02T15:42:21.526Z,45.67
2023-04-02T15:47:39.111Z,45.91
2023-04-02T15:52:53.407Z,45.37
2023-04-02T15:58:13.549Z,45.89
2023-04-02T16:03:30.671Z,44.85
2023-04-02T16:08:49.889Z,44.91
2023-04-02T16:14:07.523Z,45.21
2023-04-02T16:19:38.466Z,45.32
2023-04-02T16:24:44.462Z,45.84
2023-04-02T16:30:11.327Z,45.42
2023-04-02T16:35:44.028Z,46.02
2023-04-02T16:41:07.720Z,45.25
2023-04-02T16:46:08.673Z,43.84
2023-04-02T16:51:26.233Z,45.28
2023-04-02T16:56:49.739Z,45.54
2023-04-02T17:02:15.911Z,46.47
2023-04-02T17:07:30.482Z,46.74
2023-04-02T17:12:39.042Z,46.63
2023-04-02T17:17:45.905Z,46.81
2023-04-02T17:22:53.493Z,46.80
2023-04-02T17:27:59.275Z,47.07
2023-04-02T17:33:07.877Z,47.49
2023-04-02T17:38:28.063Z,48.06
2023-04-02T17:43:54.526Z,48.52
2023-04-02T17:49:22.996Z,48.83
2023-04-02T17:54:34.536Z,48.96
2023-04-02T17:59:48.857Z,49.40
2023-04-02T18:05:09.356Z,49.82
2023-04-02T18:10:36.647Z,50.34
2023-04-02T18:16:03.354Z,50.75
2023-04-02T18:21:14.450Z,51.00
2023-04-02T18:26:34.951Z,51.53
2023-04-02T18:31:55.598Z,51.72
2023-04-02T18:37:22.063Z,51.98
2023-04-02T18:42:42.574Z,52.11
2023-04-02T18:47:56.601Z,52.56
2023-04-02T18:53:14.430Z,52.86
2023-04-02T18:58:22.986Z,52.86
2023-04-02T19:03:34.477Z,53.94
2023-04-02T19:08:58.261Z,53.94
2023-04-02T19:14:09.554Z,53.94
2023-04-02T19:19:27.131Z,54.21
2023-04-02T19:24:36.351Z,54.57
2023-04-02T19:30:09.283Z,54.55
2023-04-02T19:35:26.709Z,54.65
2023-04-02T19:40:41.073Z,54.90
2023-04-02T19:45:53.433Z,55.23
2023-04-02T19:51:00.477Z,55.78
2023-04-02T19:56:06.291Z,55.78
2023-04-02T20:01:11.805Z,55.94
2023-04-02T20:06:17.411Z,55.94
2023-04-02T20:11:22.961Z,56.77
2023-04-02T20:16:28.554Z,56.77
2023-04-02T20:21:35.835Z,57.31
2023-04-02T20:26:41.409Z,57.49
2023-04-02T20:31:46.947Z,57.36
2023-04-02T20:36:53.784Z,57.53
2023-04-02T20:42:01.288Z,58.01
2023-04-02T20:47:07.477Z,58.17
2023-04-02T20:52:12.910Z,58.21
2023-04-02T20:57:20.095Z,58.01
2023-04-02T21:02:25.696Z,57.93
2023-04-02T21:07:31.557Z,58.09
2023-04-02T21:12:41.458Z,58.13
2023-04-02T21:17:47.192Z,58.23
2023-04-02T21:22:53.098Z,58.28
2023-04-02T21:27:58.608Z,58.24
2023-04-02T21:33:04.205Z,58.43
2023-04-02T21:38:09.846Z,58.48
2023-04-02T21:43:15.526Z,58.66
2023-04-02T21:48:20.995Z,59.20
2023-04-02T21:53:26.667Z,59.30
2023-04-02T21:58:32.591Z,59.26
2023-04-02T22:03:39.095Z,59.38
2023-04-02T22:08:45.993Z,59.38
2023-04-02T22:13:51.866Z,59.54
2023-04-02T22:19:01.327Z,59.62
2023-04-02T22:24:14.213Z,59.45
2023-04-02T22:29:20.716Z,59.57
2023-04-02T22:34:26.320Z,59.68
2023-04-02T22:39:31.813Z,59.87
2023-04-02T22:44:37.241Z,59.87
2023-04-02T22:49:42.883Z,60.00
2023-04-02T22:54:48.306Z,60.14
2023-04-02T22:59:53.807Z,60.34
2023-04-02T23:04:59.337Z,60.54
2023-04-02T23:10:06.521Z,60.74
2023-04-02T23:15:12.891Z,60.68
2023-04-02T23:20:18.560Z,60.77
2023-04-02T23:25:24.135Z,60.64
2023-04-02T23:30:29.601Z,60.64
2023-04-02T23:35:35.824Z,60.82
2023-04-02T23:40:41.730Z,60.75
2023-04-02T23:45:51.198Z,60.89
2023-04-02T23:50:56.703Z,60.67
2023-04-02T23:56:02.405Z,60.80
